Time;durP1;ratioP1;P1;durP2;ratioP2;P2;SDS_P1;SDS_P2;PMS_P1;PMS_P2;Temp;Humidity;BMP_temperature;BMP_pressure;BME280_temperature;BME280_humidity;BME280_pressure;Samples;Min_cycle;Max_cycle;Signal;HPM_P1;HPM_P2
2022/01/12 00:01:54;;;;;;;21.67;14.77;;;4.30;99.90;;;;;;4972135;28;20465;-66
2022/01/12 00:04:22;;;;;;;19.90;14.57;;;4.20;99.90;;;;;;4973526;28;20523;-66
2022/01/12 00:06:50;;;;;;;24.03;14.27;;;4.20;99.90;;;;;;4973488;28;20462;-66
2022/01/12 00:09:18;;;;;;;18.77;13.80;;;4.20;99.90;;;;;;4967281;28;21267;-66
2022/01/12 00:11:48;;;;;;;20.67;14.97;;;4.20;99.90;;;;;;4943811;28;20482;-66
2022/01/12 00:14:17;;;;;;;21.03;14.63;;;4.20;99.90;;;;;;4952997;28;20476;-66
2022/01/12 00:16:47;;;;;;;23.53;14.37;;;4.30;99.90;;;;;;4951788;28;20487;-66
2022/01/12 00:19:16;;;;;;;22.33;15.20;;;4.20;99.90;;;;;;4954923;28;20481;-66
2022/01/12 00:21:44;;;;;;;21.57;14.97;;;4.20;99.90;;;;;;4953802;28;20479;-66
2022/01/12 00:24:12;;;;;;;22.13;14.57;;;4.20;99.90;;;;;;4954916;28;20486;-66
2022/01/12 00:33:07;;;;;;;23.80;16.07;;;4.20;99.90;;;;;;4954767;28;20481;-66
2022/01/12 00:35:05;;;;;;;23.97;16.17;;;4.20;99.90;;;;;;4954455;28;20470;-66
2022/01/12 00:37:33;;;;;;;24.97;15.77;;;4.20;99.90;;;;;;4962173;28;20973;-66
2022/01/12 00:40:01;;;;;;;28.90;16.43;;;4.10;99.90;;;;;;4974177;28;20485;-66
2022/01/12 00:42:30;;;;;;;24.20;16.70;;;4.20;99.90;;;;;;4972218;28;20495;-66
2022/01/12 00:45:01;;;;;;;24.60;16.13;;;4.20;99.90;;;;;;4973067;28;20999;-66
2022/01/12 00:47:30;;;;;;;26.63;16.83;;;4.20;99.90;;;;;;4972112;28;20509;-66
2022/01/12 00:49:58;;;;;;;25.93;17.13;;;4.10;99.90;;;;;;4969956;28;20471;-66
2022/01/12 00:52:26;;;;;;;23.57;16.60;;;4.10;99.90;;;;;;4970385;28;20530;-66
2022/01/12 00:54:54;;;;;;;25.97;17.37;;;4.00;99.90;;;;;;4973720;28;20553;-66
2022/01/12 00:57:22;;;;;;;26.67;17.27;;;4.00;99.90;;;;;;4973618;28;20474;-66
2022/01/12 00:59:50;;;;;;;25.80;16.30;;;4.00;99.90;;;;;;4973594;28;20477;-66
2022/01/12 01:02:20;;;;;;;26.23;16.50;;;4.10;99.90;;;;;;4973075;28;20481;-66
2022/01/12 01:04:48;;;;;;;24.80;16.77;;;4.10;99.90;;;;;;4971731;28;20484;-66
2022/01/12 01:07:17;;;;;;;29.03;17.47;;;4.10;99.90;;;;;;4963724;28;20488;-66
2022/01/12 01:09:57;;;;;;;30.93;17.50;;;4.10;99.90;;;;;;4971792;28;20812;-66
2022/01/12 01:12:25;;;;;;;23.37;16.40;;;4.10;99.90;;;;;;4971987;28;20485;-66
2022/01/12 01:15:03;;;;;;;23.70;16.73;;;4.20;99.90;;;;;;4942825;28;20469;-66
2022/01/12 01:25:52;;;;;;;28.97;18.97;;;4.10;99.90;;;;;;4978365;28;20485;-66
2022/01/12 01:28:23;;;;;;;31.23;18.53;;;4.10;99.90;;;;;;4978186;28;20470;-66
2022/01/12 01:30:51;;;;;;;32.73;19.47;;;4.10;99.90;;;;;;4987904;28;20469;-66
2022/01/12 01:33:27;;;;;;;32.33;20.33;;;4.10;99.90;;;;;;4971701;28;20485;-66
2022/01/12 01:35:57;;;;;;;33.07;20.40;;;4.20;99.90;;;;;;4971800;28;20476;-66
2022/01/12 01:38:27;;;;;;;40.40;21.83;;;4.10;99.90;;;;;;4972788;28;20858;-66
2022/01/12 01:40:55;;;;;;;33.60;21.03;;;4.10;99.90;;;;;;4971729;28;20477;-66
2022/01/12 01:43:39;;;;;;;34.93;21.33;;;4.10;99.90;;;;;;4971170;28;20478;-66
2022/01/12 01:54:27;;;;;;;36.30;22.03;;;4.10;99.90;;;;;;4967755;28;20842;-66
2022/01/12 01:56:55;;;;;;;38.50;23.10;;;4.10;99.90;;;;;;4972857;28;20464;-66
2022/01/12 01:59:24;;;;;;;39.83;23.60;;;4.20;99.90;;;;;;4970923;28;20485;-66
2022/01/12 02:01:53;;;;;;;37.37;22.87;;;4.10;99.90;;;;;;4970931;28;20476;-66
2022/01/12 02:04:22;;;;;;;35.87;22.47;;;4.10;99.90;;;;;;4971114;28;20957;-66
2022/01/12 02:06:54;;;;;;;41.13;23.10;;;4.10;99.90;;;;;;4970746;28;20843;-66
2022/01/12 02:09:22;;;;;;;40.90;22.67;;;4.20;99.90;;;;;;4971009;28;20477;-66
2022/01/12 02:11:59;;;;;;;40.33;24.87;;;4.20;99.90;;;;;;4970717;28;20473;-66
2022/01/12 02:14:30;;;;;;;42.50;23.93;;;4.20;99.90;;;;;;4986834;28;20858;-66
2022/01/12 02:17:03;;;;;;;38.90;22.57;;;4.20;99.90;;;;;;4972507;28;20498;-66
2022/01/12 02:19:50;;;;;;;38.17;23.77;;;4.10;99.90;;;;;;4970044;28;20484;-66
2022/01/12 02:36:19;;;;;;;50.40;27.47;;;4.40;99.90;;;;;;4972104;28;20993;-66
2022/01/12 02:41:35;;;;;;;40.87;23.07;;;4.30;99.90;;;;;;4971008;28;20567;-66
2022/01/12 02:55:10;;;;;;;43.97;24.93;;;4.20;99.90;;;;;;4971580;28;20477;-66
2022/01/12 02:57:39;;;;;;;43.67;25.07;;;4.10;99.90;;;;;;4970284;28;20485;-66
2022/01/12 03:00:14;;;;;;;41.30;25.20;;;4.20;99.90;;;;;;4970426;28;20494;-66
2022/01/12 03:02:48;;;;;;;43.70;25.87;;;4.30;99.90;;;;;;4969964;28;20480;-66
2022/01/12 03:05:34;;;;;;;41.37;24.70;;;4.20;99.90;;;;;;4970520;28;20488;-66
2022/01/12 03:08:11;;;;;;;42.93;22.67;;;4.20;99.90;;;;;;4971255;28;20852;-66
2022/01/12 03:10:42;;;;;;;44.87;27.27;;;4.40;99.90;;;;;;4970428;28;20495;-66
2022/01/12 03:13:19;;;;;;;45.41;27.06;;;4.40;99.90;;;;;;4850004;28;10001213;-66
2022/01/12 03:15:48;;;;;;;45.42;27.75;;;4.30;99.90;;;;;;1367914;28;10001510;-66
2022/01/12 03:18:18;;;;;;;47.90;26.70;;;4.30;99.90;;;;;;4974179;28;20315;-66
2022/01/12 03:20:46;;;;;;;46.73;27.97;;;4.30;99.90;;;;;;4973836;28;21011;-66
2022/01/12 03:23:15;;;;;;;44.37;25.57;;;4.20;99.90;;;;;;4973656;28;20476;-66
2022/01/12 03:25:45;;;;;;;42.93;25.53;;;4.20;99.90;;;;;;4973824;28;20549;-66
2022/01/12 03:28:13;;;;;;;42.23;23.73;;;4.30;99.90;;;;;;4973863;28;20535;-66
2022/01/12 03:30:51;;;;;;;44.40;26.20;;;4.40;99.90;;;;;;4973683;28;20563;-66
2022/01/12 03:33:34;;;;;;;45.20;25.97;;;4.20;99.90;;;;;;4975115;28;20976;-66
2022/01/12 03:36:24;;;;;;;42.13;24.80;;;4.20;99.90;;;;;;4973603;28;21052;-66
2022/01/12 03:38:56;;;;;;;43.77;25.53;;;4.20;99.90;;;;;;4973687;28;20559;-66
2022/01/12 03:41:27;;;;;;;43.50;26.77;;;4.20;99.90;;;;;;4974603;28;20493;-66
2022/01/12 03:43:56;;;;;;;44.13;26.13;;;4.30;99.90;;;;;;4973594;28;20512;-66
2022/01/12 03:46:32;;;;;;;40.43;24.97;;;4.30;99.90;;;;;;4973646;28;20486;-66
2022/01/12 03:49:00;;;;;;;40.47;24.63;;;4.20;99.90;;;;;;4973441;28;20543;-66
2022/01/12 03:51:28;;;;;;;37.77;23.77;;;4.20;99.90;;;;;;4975083;28;20853;-66
2022/01/12 03:53:56;;;;;;;41.80;24.13;;;4.30;99.90;;;;;;4973387;28;20835;-66
2022/01/12 03:56:26;;;;;;;36.23;23.97;;;4.30;99.90;;;;;;4973630;28;20591;-66
2022/01/12 03:58:54;;;;;;;40.63;21.73;;;4.20;99.90;;;;;;4973478;28;20960;-66
2022/01/12 04:01:22;;;;;;;41.90;25.00;;;4.30;99.90;;;;;;4974640;28;20487;-66
2022/01/12 04:04:02;;;;;;;36.40;22.17;;;4.20;99.90;;;;;;4973185;28;20524;-66
2022/01/12 04:09:37;;;;;;;42.20;24.37;;;4.20;99.90;;;;;;4972342;28;20560;-66
2022/01/12 04:12:07;;;;;;;44.27;26.17;;;4.30;99.90;;;;;;4974322;28;20489;-66
2022/01/12 04:14:36;;;;;;;42.47;24.77;;;4.30;99.90;;;;;;4973093;28;20550;-66
2022/01/12 04:17:04;;;;;;;38.73;23.80;;;4.30;99.90;;;;;;4973097;28;20502;-66
2022/01/12 04:19:34;;;;;;;38.47;24.27;;;4.20;99.90;;;;;;4972972;28;20485;-66
2022/01/12 04:23:16;;;;;;;44.57;25.10;;;4.20;99.90;;;;;;4972389;28;20492;-66
2022/01/12 04:24:55;;;;;;;39.33;23.40;;;4.20;99.90;;;;;;4972941;28;20529;-66
2022/01/12 04:27:24;;;;;;;45.77;25.50;;;4.20;99.90;;;;;;4974320;28;20458;-66
2022/01/12 04:29:53;;;;;;;39.47;22.57;;;4.10;99.90;;;;;;4972829;28;20474;-66
2022/01/12 04:32:23;;;;;;;54.13;34.23;;;4.10;99.90;;;;;;4972987;28;20429;-66
2022/01/12 04:34:52;;;;;;;46.03;29.30;;;4.30;99.90;;;;;;4974131;28;20237;-66
2022/01/12 04:37:20;;;;;;;46.83;27.17;;;4.30;99.90;;;;;;4974045;28;20508;-66
2022/01/12 04:39:48;;;;;;;43.37;27.00;;;4.20;99.90;;;;;;4972041;28;20474;-66
2022/01/12 04:42:16;;;;;;;38.97;25.03;;;4.30;99.90;;;;;;4972145;28;20560;-66
2022/01/12 04:44:48;;;;;;;45.73;26.10;;;4.30;99.90;;;;;;4972305;28;20509;-66
2022/01/12 04:47:29;;;;;;;40.87;23.27;;;4.20;99.90;;;;;;4972383;28;20516;-66
2022/01/12 04:49:59;;;;;;;42.37;23.87;;;4.20;99.90;;;;;;4972749;28;20564;-66
2022/01/12 04:52:27;;;;;;;35.43;21.37;;;4.30;99.90;;;;;;4973864;28;20543;-66
2022/01/12 04:54:56;;;;;;;39.37;24.53;;;4.40;99.90;;;;;;4973943;28;20935;-66
2022/01/12 04:57:27;;;;;;;43.03;24.20;;;4.30;99.90;;;;;;4972084;28;20473;-66
2022/01/12 05:00:05;;;;;;;42.80;24.47;;;4.40;99.90;;;;;;4972537;28;20573;-66
2022/01/12 05:08:17;;;;;;;44.37;24.60;;;4.40;99.90;;;;;;4971843;28;20478;-66
2022/01/12 05:13:32;;;;;;;47.23;25.77;;;4.40;99.90;;;;;;4973207;28;20488;-66
2022/01/12 05:16:03;;;;;;;42.83;25.00;;;4.40;99.90;;;;;;4972113;28;20998;-66
2022/01/12 05:18:40;;;;;;;42.94;23.70;;;4.30;99.90;;;;;;4430058;28;10000858;-66
2022/01/12 05:21:09;;;;;;;40.85;22.45;;;4.30;99.90;;;;;;1710814;28;10002263;-66
2022/01/12 05:23:38;;;;;;;45.73;23.73;;;4.40;99.90;;;;;;4971452;28;20242;-66
2022/01/12 05:26:07;;;;;;;45.00;24.83;;;4.40;99.90;;;;;;4971674;28;20500;-66
2022/01/12 05:28:38;;;;;;;37.57;20.20;;;4.40;99.90;;;;;;4971277;28;20568;-66
2022/01/12 05:31:10;;;;;;;46.77;25.23;;;4.40;99.90;;;;;;4970619;28;20481;-66
2022/01/12 05:33:44;;;;;;;48.00;24.70;;;4.50;99.90;;;;;;4970844;28;20890;-66
2022/01/12 05:36:12;;;;;;;45.90;24.43;;;4.40;99.90;;;;;;4971342;28;20970;-66
2022/01/12 05:38:41;;;;;;;40.87;21.57;;;4.30;99.90;;;;;;4971254;28;20535;-66
2022/01/12 05:41:09;;;;;;;46.47;24.00;;;4.40;99.90;;;;;;4970309;28;20555;-66
2022/01/12 05:43:39;;;;;;;51.00;24.10;;;4.30;99.90;;;;;;4971141;28;20564;-66
2022/01/12 05:46:11;;;;;;;49.97;25.00;;;4.30;99.90;;;;;;4971461;28;20488;-66
2022/01/12 05:51:27;;;;;;;52.60;25.00;;;4.20;99.90;;;;;;4970209;28;21032;-66
2022/01/12 05:53:56;;;;;;;48.83;25.73;;;4.30;99.90;;;;;;4971314;28;20836;-66
2022/01/12 05:56:25;;;;;;;51.87;25.00;;;4.30;99.90;;;;;;4971205;28;20473;-66
2022/01/12 05:58:53;;;;;;;52.47;24.30;;;4.30;99.90;;;;;;4971143;28;21045;-66
2022/01/12 06:01:23;;;;;;;51.57;25.27;;;4.40;99.90;;;;;;4970998;28;20893;-66
2022/01/12 06:03:53;;;;;;;53.53;25.37;;;4.50;99.90;;;;;;4970920;28;20913;-66
2022/01/12 06:06:23;;;;;;;53.30;25.53;;;4.30;99.90;;;;;;4970965;28;21218;-66
2022/01/12 06:08:52;;;;;;;52.37;25.47;;;4.30;99.90;;;;;;4969189;28;20458;-66
2022/01/12 06:11:23;;;;;;;56.97;24.53;;;4.30;99.90;;;;;;4970882;28;20512;-66
2022/01/12 06:13:55;;;;;;;57.90;26.13;;;4.40;99.90;;;;;;4970937;28;20992;-66
2022/01/12 06:16:24;;;;;;;57.20;26.50;;;4.50;99.90;;;;;;4970845;28;20501;-66
2022/01/12 06:18:53;;;;;;;50.83;24.03;;;4.40;99.90;;;;;;4970808;28;20465;-66
2022/01/12 06:21:21;;;;;;;57.33;25.73;;;4.50;99.90;;;;;;4970703;28;20512;-66
2022/01/12 06:24:00;;;;;;;55.27;24.47;;;4.70;99.90;;;;;;4970801;28;20469;-66
2022/01/12 06:26:28;;;;;;;57.90;25.83;;;4.60;99.90;;;;;;4970195;28;20493;-66
2022/01/12 06:31:51;;;;;;;52.40;25.67;;;4.50;99.90;;;;;;4932695;28;20704;-66
2022/01/12 06:34:21;;;;;;;53.67;25.00;;;4.40;99.90;;;;;;4969888;28;20580;-66
2022/01/12 06:36:50;;;;;;;49.80;24.63;;;4.40;99.90;;;;;;4970313;28;20906;-66
2022/01/12 06:39:20;;;;;;;49.63;24.43;;;4.40;99.90;;;;;;4956733;28;20482;-66
2022/01/12 06:41:52;;;;;;;49.93;22.83;;;4.40;99.90;;;;;;4972922;28;20484;-66
2022/01/12 06:44:21;;;;;;;52.77;24.87;;;4.40;99.90;;;;;;4974240;28;20485;-66
2022/01/12 06:46:52;;;;;;;53.53;23.97;;;4.40;99.90;;;;;;4985997;28;20492;-66
2022/01/12 06:49:20;;;;;;;54.33;24.17;;;4.40;99.90;;;;;;4967256;28;20478;-66
2022/01/12 06:51:50;;;;;;;60.53;26.00;;;4.40;99.90;;;;;;4969631;28;20610;-66
2022/01/12 06:54:18;;;;;;;63.00;27.77;;;4.40;99.90;;;;;;4954445;28;20832;-66
2022/01/12 06:56:46;;;;;;;58.27;26.37;;;4.40;99.90;;;;;;4959845;28;20836;-66
2022/01/12 06:59:15;;;;;;;56.60;26.13;;;4.40;99.90;;;;;;4986661;28;21012;-66
2022/01/12 07:01:44;;;;;;;52.23;25.20;;;4.30;99.90;;;;;;4967461;28;20531;-66
2022/01/12 07:04:16;;;;;;;57.47;25.30;;;4.40;99.90;;;;;;4968964;28;20570;-66
2022/01/12 07:06:44;;;;;;;58.53;26.20;;;4.40;99.90;;;;;;4968598;28;20489;-66
2022/01/12 07:09:17;;;;;;;57.63;25.67;;;4.40;99.90;;;;;;4968139;28;20532;-66
2022/01/12 07:11:54;;;;;;;53.73;25.93;;;4.30;99.90;;;;;;4968670;28;20541;-66
2022/01/12 07:14:29;;;;;;;57.50;24.90;;;4.30;99.90;;;;;;4940934;28;20551;-66
2022/01/12 07:16:59;;;;;;;62.17;25.90;;;4.30;99.90;;;;;;968626;28;10001976;-66
2022/01/12 07:19:29;;;;;;;61.30;26.43;;;4.30;99.90;;;;;;4968240;28;20250;-66
2022/01/12 07:21:57;;;;;;;58.90;26.83;;;4.30;99.90;;;;;;4968617;28;20492;-66
2022/01/12 07:24:25;;;;;;;59.40;27.23;;;4.30;99.90;;;;;;4970063;28;20846;-66
2022/01/12 07:26:54;;;;;;;60.50;26.63;;;4.30;99.90;;;;;;4970377;28;20505;-66
2022/01/12 07:29:22;;;;;;;61.77;26.30;;;4.30;99.90;;;;;;4970346;28;20470;-66
2022/01/12 07:31:50;;;;;;;56.80;27.27;;;4.30;99.90;;;;;;4970320;28;20474;-66
2022/01/12 07:34:18;;;;;;;58.17;26.97;;;4.30;99.90;;;;;;4970131;28;20481;-66
2022/01/12 07:36:48;;;;;;;58.73;25.27;;;4.30;99.90;;;;;;4967697;28;20569;-66
2022/01/12 07:39:16;;;;;;;59.03;26.37;;;4.30;99.90;;;;;;4968473;28;20478;-66
2022/01/12 07:41:44;;;;;;;55.73;25.10;;;4.30;99.90;;;;;;4969227;28;20534;-66
2022/01/12 07:44:12;;;;;;;60.33;27.20;;;4.30;99.90;;;;;;4971398;28;21035;-66
2022/01/12 07:46:41;;;;;;;55.47;25.30;;;4.30;99.90;;;;;;4971207;28;20568;-67
2022/01/12 07:49:10;;;;;;;56.10;26.00;;;4.30;99.90;;;;;;4964360;28;20549;-66
2022/01/12 07:51:39;;;;;;;60.53;26.93;;;4.30;99.90;;;;;;4964982;28;20571;-66
2022/01/12 07:54:09;;;;;;;54.60;24.00;;;4.30;99.90;;;;;;4969611;28;20871;-66
2022/01/12 07:56:37;;;;;;;59.47;25.63;;;4.30;99.90;;;;;;4971793;28;20491;-66
2022/01/12 07:59:05;;;;;;;54.93;26.27;;;4.40;99.90;;;;;;4974811;28;21012;-66
2022/01/12 08:01:34;;;;;;;63.17;26.30;;;4.40;99.90;;;;;;4974806;28;20468;-66
2022/01/12 08:04:02;;;;;;;57.40;25.47;;;4.40;99.90;;;;;;4973605;28;20469;-66
2022/01/12 08:06:30;;;;;;;66.90;28.67;;;4.40;99.90;;;;;;4974293;28;20474;-66
2022/01/12 08:08:59;;;;;;;59.07;26.23;;;4.40;99.90;;;;;;4970305;28;20465;-66
2022/01/12 08:11:31;;;;;;;63.10;26.83;;;4.50;99.90;;;;;;4972933;28;20487;-66
2022/01/12 08:13:59;;;;;;;56.47;25.80;;;4.40;99.90;;;;;;4974446;28;20463;-66
2022/01/12 08:16:27;;;;;;;57.20;25.73;;;4.40;99.90;;;;;;4974372;28;20466;-66
2022/01/12 08:18:56;;;;;;;54.00;24.77;;;4.50;99.90;;;;;;4974300;28;20526;-66
2022/01/12 08:21:27;;;;;;;66.87;27.60;;;4.50;99.90;;;;;;4974329;28;21014;-66
2022/01/12 08:23:55;;;;;;;61.63;26.47;;;4.50;99.90;;;;;;4974313;28;22458;-66
2022/01/12 08:26:33;;;;;;;60.80;26.30;;;4.40;99.90;;;;;;4974259;28;20477;-66
2022/01/12 08:29:01;;;;;;;61.17;26.70;;;4.40;99.90;;;;;;4974419;28;20473;-66
2022/01/12 08:31:29;;;;;;;65.57;26.80;;;4.40;99.90;;;;;;4974186;28;20466;-66
2022/01/12 08:33:58;;;;;;;62.27;26.20;;;4.50;99.90;;;;;;4974195;28;20470;-66
2022/01/12 08:36:26;;;;;;;67.40;27.13;;;4.50;99.90;;;;;;4974199;28;20527;-66
2022/01/12 08:38:55;;;;;;;60.90;26.30;;;4.50;99.90;;;;;;4974077;28;20481;-66
2022/01/12 08:41:23;;;;;;;61.70;27.17;;;4.50;99.90;;;;;;4974023;28;20573;-66
2022/01/12 08:43:53;;;;;;;62.73;27.23;;;4.50;99.90;;;;;;4974021;28;20468;-66
2022/01/12 08:46:21;;;;;;;68.40;27.00;;;4.50;99.90;;;;;;4974026;28;20478;-66
2022/01/12 08:48:49;;;;;;;75.07;28.90;;;4.50;99.90;;;;;;4973859;28;20535;-66
2022/01/12 08:51:17;;;;;;;65.43;26.17;;;4.50;99.90;;;;;;4973733;28;20586;-66
2022/01/12 08:53:45;;;;;;;66.87;27.23;;;4.50;99.90;;;;;;4973559;28;20483;-66
2022/01/12 08:56:13;;;;;;;69.60;27.77;;;4.60;99.90;;;;;;4973870;28;20553;-66
2022/01/12 08:58:41;;;;;;;66.50;27.17;;;4.60;99.90;;;;;;4982725;28;20461;-66
2022/01/12 09:01:11;;;;;;;69.07;27.60;;;4.60;99.90;;;;;;4975952;28;20478;-66
2022/01/12 09:03:41;;;;;;;63.23;26.97;;;4.60;99.90;;;;;;4973425;28;20481;-66
2022/01/12 09:06:09;;;;;;;64.23;26.67;;;4.60;99.90;;;;;;4973789;28;20505;-66
2022/01/12 09:08:40;;;;;;;58.87;23.83;;;4.60;99.90;;;;;;4972111;28;21005;-66
2022/01/12 09:11:09;;;;;;;71.13;28.23;;;4.60;99.90;;;;;;4973344;28;20481;-66
2022/01/12 09:13:37;;;;;;;61.07;25.13;;;4.60;99.90;;;;;;4973103;28;20559;-66
2022/01/12 09:16:06;;;;;;;57.93;24.60;;;4.70;99.90;;;;;;4973570;28;20522;-66
2022/01/12 09:18:37;;;;;;;61.60;25.47;;;4.60;99.90;;;;;;4973608;28;20532;-66
2022/01/12 09:21:06;;;;;;;57.13;24.30;;;4.60;99.90;;;;;;4972914;28;20489;-66
2022/01/12 09:23:35;;;;;;;58.13;24.43;;;4.70;99.90;;;;;;4979116;28;20482;-66
2022/01/12 09:26:03;;;;;;;58.70;25.50;;;4.70;99.90;;;;;;4992890;28;21055;-66
2022/01/12 09:28:32;;;;;;;61.57;26.70;;;4.70;99.90;;;;;;4977076;28;20474;-66
2022/01/12 09:31:00;;;;;;;58.70;25.47;;;4.70;99.90;;;;;;4973363;28;20498;-66
2022/01/12 09:33:28;;;;;;;57.47;24.87;;;4.70;99.90;;;;;;4972935;28;20852;-66
2022/01/12 09:35:58;;;;;;;54.57;23.47;;;4.70;99.90;;;;;;4973195;28;20893;-66
2022/01/12 09:38:26;;;;;;;55.70;24.43;;;4.70;99.90;;;;;;4972855;28;20464;-66
2022/01/12 09:40:55;;;;;;;53.37;23.77;;;4.70;99.90;;;;;;4972884;28;20474;-66
2022/01/12 09:43:26;;;;;;;56.67;23.47;;;4.70;99.90;;;;;;4970330;28;20474;-66
2022/01/12 09:45:55;;;;;;;52.53;23.80;;;4.80;99.90;;;;;;4909097;28;22055;-66
2022/01/12 09:48:26;;;;;;;52.07;24.20;;;4.80;99.90;;;;;;994423;28;10002030;-66
2022/01/12 09:50:56;;;;;;;52.83;24.10;;;4.80;99.90;;;;;;4953673;28;21435;-66
2022/01/12 09:53:26;;;;;;;55.13;23.03;;;4.80;99.90;;;;;;4967487;28;20480;-66
2022/01/12 09:55:54;;;;;;;50.47;22.20;;;5.00;99.90;;;;;;4972567;28;20494;-66
2022/01/12 09:58:22;;;;;;;47.40;21.97;;;5.00;99.90;;;;;;4972409;28;20819;-66
2022/01/12 10:00:57;;;;;;;45.53;20.77;;;5.00;99.90;;;;;;4972484;28;20524;-66
2022/01/12 10:03:31;;;;;;;52.20;23.20;;;5.00;99.90;;;;;;4961235;28;20568;-66
2022/01/12 10:06:00;;;;;;;45.33;20.17;;;5.00;99.90;;;;;;4953251;28;20462;-66
2022/01/12 10:08:35;;;;;;;55.07;22.37;;;5.10;99.90;;;;;;4952637;28;20462;-66
2022/01/12 10:11:06;;;;;;;54.03;22.13;;;5.30;99.90;;;;;;4956176;28;20480;-66
2022/01/12 10:13:40;;;;;;;52.07;21.83;;;5.30;99.90;;;;;;4970747;28;20514;-66
2022/01/12 10:16:15;;;;;;;49.40;22.60;;;5.20;99.90;;;;;;4972460;28;20301;-66
2022/01/12 10:18:48;;;;;;;51.43;22.03;;;5.20;99.90;;;;;;4971918;28;20539;-66
2022/01/12 10:21:27;;;;;;;52.43;22.60;;;5.50;99.90;;;;;;4971921;28;20514;-66
2022/01/12 10:23:59;;;;;;;45.67;19.80;;;5.60;99.90;;;;;;4972108;28;20859;-66
2022/01/12 10:26:34;;;;;;;44.77;20.23;;;5.70;99.90;;;;;;4972214;28;20477;-66
2022/01/12 10:29:04;;;;;;;46.03;18.10;;;5.70;99.90;;;;;;4970928;28;20552;-66
2022/01/12 10:31:47;;;;;;;46.37;18.67;;;5.80;99.90;;;;;;4956740;28;20478;-66
2022/01/12 10:34:21;;;;;;;46.10;17.90;;;5.90;99.90;;;;;;4967965;28;20245;-66
2022/01/12 10:36:50;;;;;;;35.33;18.03;;;6.00;99.90;;;;;;4971679;28;20497;-66
2022/01/12 10:39:22;;;;;;;41.10;18.70;;;6.10;99.90;;;;;;4972001;28;20481;-66
2022/01/12 10:42:01;;;;;;;39.13;17.60;;;6.10;99.90;;;;;;4971735;28;20324;-66
2022/01/12 10:44:32;;;;;;;37.57;17.23;;;6.20;99.90;;;;;;4971636;28;20241;-66
2022/01/12 10:47:06;;;;;;;37.00;17.20;;;6.30;99.90;;;;;;4971492;28;20237;-66
2022/01/12 10:49:40;;;;;;;38.33;16.63;;;6.40;99.90;;;;;;4971567;28;20245;-66
2022/01/12 10:52:11;;;;;;;38.97;16.50;;;6.50;99.90;;;;;;4971747;28;20234;-66
2022/01/12 10:54:50;;;;;;;38.03;16.33;;;6.50;99.90;;;;;;4971796;28;20815;-66
2022/01/12 10:57:22;;;;;;;33.30;16.10;;;6.50;99.90;;;;;;4971736;28;20708;-66
2022/01/12 11:00:09;;;;;;;34.93;15.63;;;6.50;99.90;;;;;;4971859;28;20245;-66
2022/01/12 11:02:40;;;;;;;32.23;15.30;;;6.50;99.90;;;;;;4971279;28;20312;-66
2022/01/12 11:05:09;;;;;;;31.30;15.33;;;6.50;99.90;;;;;;4971536;28;21064;-66
2022/01/12 11:07:37;;;;;;;37.00;16.97;;;6.50;99.90;;;;;;4971392;28;20613;-66
2022/01/12 11:10:10;;;;;;;32.13;15.63;;;6.50;99.90;;;;;;4971613;28;20481;-66
2022/01/12 11:12:39;;;;;;;36.37;16.23;;;6.40;99.90;;;;;;4971331;28;20742;-67
2022/01/12 11:15:09;;;;;;;32.07;15.77;;;6.30;99.90;;;;;;4971631;28;20293;-66
2022/01/12 11:17:52;;;;;;;32.26;14.32;;;6.40;99.90;;;;;;3135513;28;10003167;-66
2022/01/12 11:20:25;;;;;;;28.03;15.40;;;6.40;99.90;;;;;;3245794;28;10001829;-66
2022/01/12 11:23:01;;;;;;;32.67;16.17;;;6.60;99.90;;;;;;4954136;28;20490;-66
2022/01/12 11:25:34;;;;;;;36.13;16.83;;;6.70;99.90;;;;;;4952071;28;20525;-66
2022/01/12 11:28:08;;;;;;;33.77;18.33;;;6.80;99.90;;;;;;4967876;28;20482;-66
2022/01/12 11:30:38;;;;;;;32.50;16.90;;;7.00;99.90;;;;;;4967029;28;20324;-66
2022/01/12 11:33:08;;;;;;;31.73;17.43;;;7.10;99.90;;;;;;4962534;28;20506;-66
2022/01/12 11:35:40;;;;;;;30.50;16.20;;;7.00;99.90;;;;;;4967107;28;20234;-66
2022/01/12 11:38:20;;;;;;;29.70;15.57;;;6.80;99.90;;;;;;4962793;28;20322;-66
2022/01/12 11:40:54;;;;;;;32.47;15.33;;;6.80;99.90;;;;;;4954773;28;20231;-66
2022/01/12 11:43:27;;;;;;;32.60;15.87;;;6.70;99.90;;;;;;4955617;28;20325;-66
2022/01/12 11:46:04;;;;;;;32.20;15.70;;;6.70;99.90;;;;;;4972072;28;20322;-66
2022/01/12 11:48:35;;;;;;;29.50;13.87;;;6.70;99.90;;;;;;4974982;28;20465;-66
2022/01/12 11:51:03;;;;;;;25.40;14.37;;;6.60;99.90;;;;;;4973688;28;20614;-66
2022/01/12 11:53:32;;;;;;;31.92;17.20;;;6.60;99.90;;;;;;4974170;28;20430;-68
2022/01/12 11:56:13;;;;;;;30.03;14.70;;;6.70;99.90;;;;;;4975002;28;20313;-67
2022/01/12 11:58:56;;;;;;;24.70;13.53;;;6.70;99.90;;;;;;4974369;28;20707;-67
2022/01/12 12:01:25;;;;;;;27.37;15.20;;;6.70;99.90;;;;;;4974598;28;20263;-67
2022/01/12 12:04:01;;;;;;;30.23;14.37;;;6.70;99.90;;;;;;4971807;28;20330;-68
2022/01/12 12:06:30;;;;;;;32.07;14.17;;;6.70;99.90;;;;;;4971875;28;20261;-70
2022/01/12 12:09:00;;;;;;;30.87;13.77;;;6.70;99.90;;;;;;4974643;28;20691;-68
2022/01/12 12:11:32;;;;;;;28.90;13.93;;;6.80;99.90;;;;;;4974559;28;20238;-67
2022/01/12 12:14:02;;;;;;;27.00;13.53;;;6.90;99.90;;;;;;4973565;28;20264;-68
2022/01/12 12:16:30;;;;;;;29.70;14.47;;;6.90;99.90;;;;;;4973966;28;20234;-68
2022/01/12 12:19:01;;;;;;;28.73;13.83;;;6.80;99.90;;;;;;4974419;28;20288;-68
2022/01/12 12:21:29;;;;;;;31.53;13.60;;;6.80;99.90;;;;;;4974463;28;20294;-67
2022/01/12 12:24:08;;;;;;;28.77;13.50;;;6.70;99.90;;;;;;4974373;28;20230;-67
2022/01/12 12:26:45;;;;;;;30.50;14.13;;;6.70;99.90;;;;;;4973762;28;20297;-67
2022/01/12 12:29:15;;;;;;;29.33;13.77;;;6.70;99.90;;;;;;4974478;28;20316;-67
2022/01/12 12:31:48;;;;;;;30.50;13.53;;;6.70;99.90;;;;;;4974282;28;20296;-67
2022/01/12 12:34:26;;;;;;;25.73;12.93;;;6.80;99.90;;;;;;4974283;28;20738;-67
2022/01/12 12:37:00;;;;;;;25.63;12.67;;;6.80;99.90;;;;;;4976450;28;20238;-67
2022/01/12 12:39:32;;;;;;;27.13;13.17;;;6.90;99.90;;;;;;4982037;28;20235;-67
2022/01/12 12:42:03;;;;;;;26.23;12.53;;;6.90;99.90;;;;;;4973864;28;20234;-67
2022/01/12 12:44:34;;;;;;;25.23;12.13;;;6.80;99.90;;;;;;4973865;28;20247;-67
2022/01/12 12:47:08;;;;;;;28.80;13.37;;;6.90;99.90;;;;;;4963537;28;20234;-67
2022/01/12 12:49:45;;;;;;;24.07;12.70;;;6.90;99.90;;;;;;4971244;28;20231;-67
2022/01/12 12:52:13;;;;;;;22.97;12.20;;;6.90;99.90;;;;;;4972686;28;20828;-67
2022/01/12 12:54:42;;;;;;;26.43;12.63;;;6.90;99.90;;;;;;4973507;28;20226;-66
2022/01/12 12:57:12;;;;;;;23.90;12.00;;;6.90;99.90;;;;;;4971757;28;20280;-67
2022/01/12 12:59:40;;;;;;;29.37;13.20;;;6.90;99.90;;;;;;4973559;28;20266;-67
2022/01/12 13:02:12;;;;;;;23.20;12.43;;;6.90;99.90;;;;;;4973658;28;20250;-67
2022/01/12 13:04:41;;;;;;;25.67;11.40;;;7.00;99.90;;;;;;4973563;28;20249;-67
2022/01/12 13:07:15;;;;;;;22.53;10.73;;;6.90;99.90;;;;;;4971712;28;20245;-67
2022/01/12 13:09:43;;;;;;;21.90;11.03;;;6.90;99.90;;;;;;4963479;28;20278;-68
2022/01/12 13:12:16;;;;;;;21.75;10.52;;;6.90;99.90;;;;;;4669685;28;10001005;-67
2022/01/12 13:14:47;;;;;;;20.77;10.57;;;6.90;99.90;;;;;;1366655;28;10002106;-67
2022/01/12 13:17:16;;;;;;;22.93;11.57;;;6.90;99.90;;;;;;4954212;28;20662;-67
2022/01/12 13:22:36;;;;;;;23.47;10.07;;;7.00;99.90;;;;;;4973185;28;20235;-67
2022/01/12 13:25:08;;;;;;;20.07;9.57;;;6.90;99.90;;;;;;4973047;28;20242;-67
2022/01/12 13:27:39;;;;;;;26.57;9.10;;;6.90;99.90;;;;;;4972604;28;20266;-67
2022/01/12 13:30:10;;;;;;;21.73;8.43;;;6.90;99.90;;;;;;4973664;28;20326;-67
2022/01/12 13:32:38;;;;;;;23.97;8.90;;;6.80;99.90;;;;;;4973088;28;20269;-67
2022/01/12 13:35:11;;;;;;;22.63;8.40;;;6.80;99.90;;;;;;4972565;28;20241;-67
2022/01/12 13:37:42;;;;;;;18.60;8.43;;;6.70;99.90;;;;;;4973079;28;20238;-67
2022/01/12 13:40:22;;;;;;;20.50;9.07;;;6.70;99.90;;;;;;4972944;28;20246;-67
2022/01/12 13:42:53;;;;;;;20.77;8.63;;;6.70;99.90;;;;;;4972799;28;20234;-68
2022/01/12 13:45:26;;;;;;;23.20;9.00;;;6.70;99.90;;;;;;4973453;28;20234;-67
2022/01/12 13:47:59;;;;;;;25.50;9.40;;;6.80;99.90;;;;;;4973897;28;20226;-67
2022/01/12 13:50:35;;;;;;;24.27;8.83;;;6.70;99.90;;;;;;4971948;28;20265;-67
2022/01/12 13:53:04;;;;;;;22.67;8.77;;;6.80;99.90;;;;;;4968485;28;20249;-67
2022/01/12 13:55:33;;;;;;;24.47;9.40;;;6.80;99.90;;;;;;4968507;28;20237;-67
2022/01/12 13:58:06;;;;;;;25.63;9.70;;;6.80;99.90;;;;;;4957330;28;20289;-67
2022/01/12 14:00:36;;;;;;;19.87;10.03;;;6.80;99.90;;;;;;4953079;28;20266;-67
2022/01/12 14:03:15;;;;;;;25.17;10.17;;;6.80;99.90;;;;;;4968649;28;20242;-67
2022/01/12 14:05:45;;;;;;;18.00;9.67;;;6.70;99.90;;;;;;4956042;28;20270;-68